Sacred Heart, Minnesota
Current Conditions -  °F | °C
As of 6:12 AM on Friday 31 Oct 2014 (Local Time) from KGDB Reporting Station
Clear Clear  
Wind Chill: 15°   Ceiling: Unl
Heat Index: 23°   Visibility: 10mi
Dew Point: 20°   Wind: 7mph
Humidity: 87%   Direction: 320°NW
Pressure: 30.57"   Gusts: NA
Location:  44.79°N, 95.35°W
Report Text: KGDB 311112Z AUTO 32006KT 10SM CLR M05/M07 A3057 RMK AO2 T10481067
Loading
Personal Weather Stations






























Interactive Weather Map
Tropical Storm Tracking
New forecast layout! Learn more

10-Day Weather Forecast

Advertisements
Track Severe Weather on mobile